Time;durP1;ratioP1;P1;durP2;ratioP2;P2;SDS_P1;SDS_P2;PMS_P1;PMS_P2;Temp;Humidity;BMP_temperature;BMP_pressure;BME280_temperature;BME280_humidity;BME280_pressure;Samples;Min_cycle;Max_cycle;Signal;HPM_P1;HPM_P2
2023/01/16 00:00:24;;;;;;;3.53;2.05;;;5.70;99.90;;;;;;5013404;28;20092;-55
2023/01/16 00:03:13;;;;;;;4.13;2.25;;;5.70;99.90;;;;;;5020419;28;20462;-49
2023/01/16 00:05:59;;;;;;;4.35;1.90;;;5.70;99.90;;;;;;5012322;28;20034;-52
2023/01/16 00:08:46;;;;;;;3.40;1.90;;;5.70;99.90;;;;;;5013538;28;20088;-49
2023/01/16 00:11:32;;;;;;;4.32;2.17;;;5.70;99.90;;;;;;4999231;28;20026;-55
2023/01/16 00:14:18;;;;;;;5.03;2.20;;;5.70;99.90;;;;;;5014280;28;20041;-55
2023/01/16 00:17:04;;;;;;;3.42;2.00;;;5.70;99.90;;;;;;5000935;28;20038;-58
2023/01/16 00:19:50;;;;;;;3.00;2.20;;;5.70;99.90;;;;;;5010987;28;20097;-51
2023/01/16 00:22:35;;;;;;;2.25;1.67;;;5.70;99.90;;;;;;5014296;28;20044;-54
2023/01/16 00:25:21;;;;;;;2.80;1.80;;;5.70;99.90;;;;;;5013449;28;20066;-54
2023/01/16 00:28:12;;;;;;;2.35;1.77;;;5.70;99.90;;;;;;4995230;28;20049;-52
2023/01/16 00:30:58;;;;;;;2.75;1.80;;;5.80;99.90;;;;;;4995592;28;20053;-52
2023/01/16 00:33:44;;;;;;;3.60;1.70;;;5.80;99.90;;;;;;5013004;28;20034;-50
2023/01/16 00:36:30;;;;;;;3.85;1.67;;;5.80;99.90;;;;;;5000361;28;20033;-53
2023/01/16 00:39:19;;;;;;;2.85;1.80;;;5.80;99.90;;;;;;5002460;28;20087;-53
2023/01/16 00:42:05;;;;;;;3.40;2.13;;;5.70;99.90;;;;;;4998303;28;20030;-53
2023/01/16 00:44:51;;;;;;;3.50;1.83;;;5.70;99.90;;;;;;5005516;28;20041;-49
2023/01/16 00:47:37;;;;;;;3.10;1.60;;;5.80;99.90;;;;;;5009463;28;20077;-55
2023/01/16 00:50:24;;;;;;;3.22;1.85;;;5.80;99.90;;;;;;5012839;28;20034;-49
2023/01/16 00:53:10;;;;;;;2.13;1.63;;;5.80;99.90;;;;;;5011281;28;20402;-50
2023/01/16 00:55:56;;;;;;;4.97;1.80;;;5.80;99.90;;;;;;5018319;28;20029;-54
2023/01/16 00:58:42;;;;;;;3.60;2.10;;;5.90;99.90;;;;;;5016166;28;20037;-56
2023/01/16 01:01:28;;;;;;;3.28;1.75;;;5.80;99.90;;;;;;5007618;28;20040;-54
2023/01/16 01:04:14;;;;;;;3.45;1.73;;;5.80;99.90;;;;;;4993487;28;20049;-56
2023/01/16 01:07:00;;;;;;;3.35;2.65;;;5.80;99.90;;;;;;5000917;28;20109;-55
2023/01/16 01:09:46;;;;;;;3.40;2.20;;;5.70;99.90;;;;;;5011896;28;20180;-51
2023/01/16 01:12:32;;;;;;;3.92;1.90;;;5.80;99.90;;;;;;5012399;28;20034;-55
2023/01/16 01:15:18;;;;;;;3.80;2.15;;;5.80;99.90;;;;;;5011873;28;20065;-56
2023/01/16 01:18:04;;;;;;;3.05;1.98;;;5.70;99.90;;;;;;4995691;28;20430;-55
2023/01/16 01:20:50;;;;;;;3.03;2.13;;;5.70;99.90;;;;;;5012249;28;20026;-53
2023/01/16 01:23:36;;;;;;;2.78;1.95;;;5.70;99.90;;;;;;4992926;28;20034;-56
2023/01/16 01:26:22;;;;;;;2.55;2.17;;;5.70;99.90;;;;;;4994010;28;20089;-57
2023/01/16 01:29:08;;;;;;;5.28;2.35;;;5.80;99.90;;;;;;5012372;28;20026;-54
2023/01/16 01:31:54;;;;;;;3.45;2.20;;;5.70;99.90;;;;;;4997322;28;20061;-51
2023/01/16 01:34:40;;;;;;;2.67;1.98;;;5.70;99.90;;;;;;5012364;28;20112;-52
2023/01/16 01:37:26;;;;;;;4.43;1.90;;;5.70;99.90;;;;;;5012002;28;20489;-51
2023/01/16 01:40:12;;;;;;;3.95;1.77;;;5.60;99.90;;;;;;5012290;28;20033;-48
2023/01/16 01:42:58;;;;;;;3.33;2.30;;;5.60;99.90;;;;;;4997735;28;20031;-49
2023/01/16 01:45:51;;;;;;;2.72;1.90;;;5.60;99.90;;;;;;4991842;28;20034;-53
2023/01/16 01:48:41;;;;;;;4.97;1.90;;;5.50;99.90;;;;;;5010330;28;20061;-52
2023/01/16 01:51:33;;;;;;;3.05;1.92;;;5.50;99.90;;;;;;4995307;28;20038;-54
2023/01/16 01:54:24;;;;;;;3.92;1.95;;;5.50;99.90;;;;;;5009434;28;20121;-54
2023/01/16 01:57:21;;;;;;;2.58;2.00;;;5.50;99.90;;;;;;5012296;28;20033;-51
2023/01/16 02:00:12;;;;;;;3.10;2.00;;;5.50;99.90;;;;;;5011570;28;20037;-52
2023/01/16 02:03:08;;;;;;;3.78;2.03;;;5.40;99.90;;;;;;5012570;28;20024;-52
2023/01/16 02:05:58;;;;;;;2.28;1.85;;;5.40;99.90;;;;;;5010448;28;20408;-49
2023/01/16 02:08:45;;;;;;;6.05;2.17;;;5.30;99.90;;;;;;5000707;28;20029;-49
2023/01/16 02:11:53;;;;;;;5.25;2.40;;;5.40;99.90;;;;;;4994398;28;20026;-52
2023/01/16 02:14:41;;;;;;;3.00;2.03;;;5.40;99.90;;;;;;5009160;28;20029;-48
2023/01/16 02:20:54;;;;;;;3.40;2.55;;;5.30;99.90;;;;;;4994374;28;20069;-47
2023/01/16 02:23:57;;;;;;;2.67;2.13;;;5.30;99.90;;;;;;5000607;28;20025;-51
2023/01/16 02:26:58;;;;;;;4.47;2.05;;;5.30;99.90;;;;;;5012287;28;20029;-51
2023/01/16 02:30:03;;;;;;;4.95;2.92;;;5.30;99.90;;;;;;5006541;28;20037;-50
2023/01/16 02:33:19;;;;;;;5.38;2.03;;;5.30;99.90;;;;;;4991733;28;20556;-54
2023/01/16 02:36:17;;;;;;;;;;;5.30;99.90;;;;;;5010715;28;20040;-55
2023/01/16 02:39:31;;;;;;;5.00;2.53;;;5.30;99.90;;;;;;4996913;28;19910;-54
2023/01/16 02:42:53;;;;;;;4.55;2.95;;;5.20;99.90;;;;;;5009567;28;20037;-49
2023/01/16 02:45:48;;;;;;;5.82;2.60;;;5.30;99.90;;;;;;4991854;28;20223;-47
2023/01/16 02:48:50;;;;;;;4.07;2.53;;;5.20;99.90;;;;;;5004991;28;20034;-55
2023/01/16 02:51:44;;;;;;;6.70;2.63;;;5.20;99.90;;;;;;5011612;28;20029;-51
2023/01/16 02:54:42;;;;;;;4.15;2.35;;;5.20;99.90;;;;;;5009223;28;20037;-54
2023/01/16 02:57:34;;;;;;;4.88;2.40;;;5.20;99.90;;;;;;5010273;28;20409;-48
2023/01/16 03:00:21;;;;;;;4.82;2.38;;;5.20;99.90;;;;;;5011223;28;20026;-49
2023/01/16 03:03:28;;;;;;;6.15;2.83;;;5.20;99.90;;;;;;4991013;28;20131;-50
2023/01/16 03:06:20;;;;;;;5.95;2.58;;;5.10;99.90;;;;;;4990384;28;20022;-51
2023/01/16 03:09:20;;;;;;;4.07;2.40;;;5.10;99.90;;;;;;5005861;28;20036;-50
2023/01/16 03:12:16;;;;;;;4.85;2.60;;;5.10;99.90;;;;;;5006118;28;20093;-51
2023/01/16 03:15:11;;;;;;;5.50;2.42;;;5.10;99.90;;;;;;5004011;28;20034;-50
2023/01/16 03:17:57;;;;;;;4.72;2.83;;;5.20;99.90;;;;;;5009994;28;20030;-48
2023/01/16 03:21:02;;;;;;;3.47;2.40;;;5.20;99.90;;;;;;4998231;28;20780;-52
2023/01/16 03:23:48;;;;;;;3.42;2.30;;;5.20;99.90;;;;;;4996701;28;20405;-50
2023/01/16 03:26:56;;;;;;;5.00;2.10;;;5.30;99.90;;;;;;5010167;28;20022;-53
2023/01/16 03:30:11;;;;;;;5.97;2.88;;;5.20;99.90;;;;;;4998501;28;20031;-52
2023/01/16 03:33:20;;;;;;;3.58;2.35;;;5.20;99.90;;;;;;4999450;28;20141;-53
2023/01/16 03:36:23;;;;;;;6.53;3.00;;;5.20;99.90;;;;;;5011035;28;20052;-48
2023/01/16 03:39:11;;;;;;;5.03;2.80;;;5.20;99.90;;;;;;4990917;28;20041;-56
2023/01/16 03:42:04;;;;;;;4.53;2.80;;;5.20;99.90;;;;;;4990030;28;20129;-56
2023/01/16 03:44:59;;;;;;;5.20;2.80;;;5.20;99.90;;;;;;5010337;28;20031;-53
2023/01/16 03:47:52;;;;;;;3.63;2.47;;;5.20;99.90;;;;;;5009462;28;20022;-54
2023/01/16 03:50:44;;;;;;;4.72;2.30;;;5.10;99.90;;;;;;5009897;28;20065;-52
2023/01/16 03:53:35;;;;;;;5.65;2.60;;;5.10;99.90;;;;;;4995534;28;20050;-53
2023/01/16 03:56:27;;;;;;;6.18;3.30;;;5.20;99.90;;;;;;5008546;28;20033;-53
2023/01/16 03:59:13;;;;;;;5.15;3.42;;;5.20;99.90;;;;;;5011385;28;20050;-52
2023/01/16 04:02:18;;;;;;;3.75;2.33;;;5.20;99.90;;;;;;5010979;28;20498;-53
2023/01/16 04:05:12;;;;;;;4.63;2.67;;;5.20;99.90;;;;;;5009957;28;20030;-52
2023/01/16 04:08:21;;;;;;;4.88;2.38;;;5.20;99.90;;;;;;5009823;28;20025;-53
2023/01/16 04:11:08;;;;;;;5.38;2.70;;;5.20;99.90;;;;;;5012304;28;20038;-55
2023/01/16 04:13:57;;;;;;;5.25;2.85;;;5.20;99.90;;;;;;5006902;28;20041;-52
2023/01/16 04:16:43;;;;;;;5.57;2.70;;;5.20;99.90;;;;;;5013503;28;20033;-51
2023/01/16 04:19:32;;;;;;;7.10;4.18;;;5.10;99.90;;;;;;5008960;28;20097;-54
2023/01/16 04:22:24;;;;;;;6.03;2.88;;;5.10;99.90;;;;;;5033734;28;20056;-55
2023/01/16 04:25:10;;;;;;;5.68;3.20;;;5.10;99.90;;;;;;5017572;28;20044;-55
2023/01/16 04:27:56;;;;;;;6.45;3.20;;;5.10;99.90;;;;;;5012498;28;20026;-55
2023/01/16 04:30:42;;;;;;;5.47;2.90;;;5.10;99.90;;;;;;4996411;28;20034;-56
2023/01/16 04:33:28;;;;;;;4.15;3.00;;;5.10;99.90;;;;;;4994409;28;20031;-57
2023/01/16 04:36:15;;;;;;;3.83;2.70;;;5.10;99.90;;;;;;4994253;28;20542;-56
2023/01/16 04:39:01;;;;;;;5.45;2.80;;;5.10;99.90;;;;;;5018175;28;20157;-56
2023/01/16 04:41:50;;;;;;;5.45;2.80;;;5.10;99.90;;;;;;5014065;28;20022;-56
2023/01/16 04:44:36;;;;;;;7.13;2.83;;;5.00;99.90;;;;;;4991413;28;20407;-51
2023/01/16 04:47:22;;;;;;;6.78;3.03;;;5.00;99.90;;;;;;4993572;28;20054;-55
2023/01/16 04:50:08;;;;;;;5.40;3.10;;;5.00;99.90;;;;;;4992872;28;20514;-57
2023/01/16 04:52:54;;;;;;;4.63;2.58;;;5.00;99.90;;;;;;5029364;28;20033;-56
2023/01/16 04:55:40;;;;;;;6.05;2.72;;;4.90;99.90;;;;;;5012799;28;20498;-58
2023/01/16 04:58:26;;;;;;;4.30;3.13;;;5.00;99.90;;;;;;4998169;28;20061;-54
2023/01/16 05:01:12;;;;;;;6.03;3.05;;;4.90;99.90;;;;;;5013488;28;20029;-55
2023/01/16 05:03:58;;;;;;;6.80;2.67;;;4.90;99.90;;;;;;5012717;28;20493;-52
2023/01/16 05:06:44;;;;;;;6.93;3.08;;;4.80;99.90;;;;;;5002449;28;20034;-51
2023/01/16 05:09:29;;;;;;;7.45;3.45;;;4.80;99.90;;;;;;5012961;28;20030;-48
2023/01/16 05:12:15;;;;;;;5.75;3.42;;;4.80;99.90;;;;;;5013124;28;20026;-50
2023/01/16 05:15:02;;;;;;;7.80;3.22;;;4.80;99.90;;;;;;5007076;28;20026;-51
2023/01/16 05:17:47;;;;;;;3.90;2.85;;;4.80;99.90;;;;;;4993697;28;20157;-51
2023/01/16 05:20:33;;;;;;;6.57;3.53;;;4.70;99.90;;;;;;5013231;28;20084;-55
2023/01/16 05:23:19;;;;;;;4.20;3.05;;;4.70;99.90;;;;;;5011934;28;20026;-49
2023/01/16 05:26:06;;;;;;;8.38;2.88;;;4.80;99.90;;;;;;5005800;28;20052;-55
2023/01/16 05:28:52;;;;;;;6.45;2.65;;;4.80;99.90;;;;;;4993341;28;20062;-55
2023/01/16 05:31:38;;;;;;;11.70;4.68;;;4.80;99.90;;;;;;4992953;28;20030;-52
2023/01/16 05:34:23;;;;;;;4.75;2.90;;;4.90;99.90;;;;;;4978427;28;20027;-55
2023/01/16 05:37:09;;;;;;;5.53;2.65;;;4.90;99.90;;;;;;4992274;28;20034;-53
2023/01/16 05:39:56;;;;;;;7.35;2.97;;;4.90;99.90;;;;;;5011419;28;20442;-56
2023/01/16 05:42:43;;;;;;;9.38;3.00;;;4.80;99.90;;;;;;5011798;28;20040;-57
2023/01/16 05:45:30;;;;;;;7.47;2.83;;;4.90;99.90;;;;;;5010831;28;20604;-56
2023/01/16 05:48:16;;;;;;;9.45;2.63;;;4.90;99.90;;;;;;4992126;28;20038;-56
2023/01/16 05:51:03;;;;;;;6.57;3.20;;;4.90;99.90;;;;;;4992340;28;20038;-56
2023/01/16 05:53:50;;;;;;;6.05;2.72;;;4.90;99.90;;;;;;4991521;28;20454;-50
2023/01/16 05:56:36;;;;;;;5.85;3.17;;;4.90;99.90;;;;;;4994960;28;20030;-53
2023/01/16 05:59:22;;;;;;;4.68;3.10;;;4.80;99.90;;;;;;4997795;28;20033;-55
2023/01/16 06:02:08;;;;;;;6.90;3.20;;;4.90;99.90;;;;;;4994997;28;20034;-50
2023/01/16 06:04:55;;;;;;;7.57;3.60;;;4.90;99.90;;;;;;4991485;28;20491;-56
2023/01/16 06:07:44;;;;;;;10.10;3.30;;;4.70;99.90;;;;;;5004643;28;20634;-49
2023/01/16 06:10:30;;;;;;;7.07;3.42;;;4.70;99.90;;;;;;5010518;28;20113;-51
2023/01/16 06:13:16;;;;;;;7.32;3.35;;;4.70;99.90;;;;;;5011712;28;20030;-50
2023/01/16 06:16:02;;;;;;;6.13;2.97;;;4.60;99.90;;;;;;5004955;28;20030;-50
2023/01/16 06:18:48;;;;;;;6.10;3.10;;;4.70;99.90;;;;;;4997568;28;20046;-53
2023/01/16 06:21:34;;;;;;;5.00;2.60;;;4.70;99.90;;;;;;5018933;28;20034;-48
2023/01/16 06:24:20;;;;;;;8.20;3.20;;;4.80;99.90;;;;;;5007632;28;20022;-50
2023/01/16 06:27:06;;;;;;;7.18;3.05;;;4.70;99.90;;;;;;5003371;28;20045;-51
2023/01/16 06:29:52;;;;;;;5.78;3.22;;;4.60;99.90;;;;;;5008504;28;20033;-52
2023/01/16 06:32:38;;;;;;;5.75;2.90;;;4.70;99.90;;;;;;5010714;28;20105;-53
2023/01/16 06:35:24;;;;;;;7.10;3.25;;;4.70;99.90;;;;;;4988557;28;20030;-54
2023/01/16 06:38:10;;;;;;;12.98;7.18;;;4.60;99.90;;;;;;4991453;28;20019;-52
2023/01/16 06:40:56;;;;;;;7.97;4.68;;;4.60;99.90;;;;;;5009893;28;20030;-53
2023/01/16 06:43:42;;;;;;;8.88;3.55;;;4.50;99.90;;;;;;5011482;28;20038;-47
2023/01/16 06:46:28;;;;;;;13.10;3.33;;;4.50;99.90;;;;;;5010260;28;20510;-51
2023/01/16 06:49:14;;;;;;;10.40;4.72;;;4.40;99.90;;;;;;5009574;28;20053;-52
2023/01/16 06:52:00;;;;;;;24.42;4.25;;;4.40;99.90;;;;;;5013062;28;20032;-54
2023/01/16 06:54:46;;;;;;;27.92;5.65;;;4.40;99.90;;;;;;4996393;28;20033;-50
2023/01/16 06:57:36;;;;;;;10.13;3.10;;;4.40;99.90;;;;;;5019821;28;20101;-51
2023/01/16 07:00:22;;;;;;;6.07;2.90;;;4.40;99.90;;;;;;5011678;28;20029;-55
2023/01/16 07:03:09;;;;;;;7.90;3.78;;;4.40;99.90;;;;;;5010937;28;20113;-51
2023/01/16 07:05:55;;;;;;;8.77;3.28;;;4.30;99.90;;;;;;5009740;28;20422;-54
2023/01/16 07:08:40;;;;;;;6.47;3.08;;;4.30;99.90;;;;;;5010283;28;20741;-48
2023/01/16 07:11:26;;;;;;;9.43;3.72;;;4.30;99.90;;;;;;5013470;28;20116;-52
2023/01/16 07:23:30;;;;;;;11.60;3.00;;;4.30;99.90;;;;;;5027189;28;20026;-54
2023/01/16 07:26:19;;;;;;;9.07;5.03;;;4.20;99.90;;;;;;5011605;28;20030;-51
2023/01/16 07:29:05;;;;;;;4.57;2.95;;;4.30;99.90;;;;;;5021931;28;20108;-51
2023/01/16 07:31:51;;;;;;;7.70;3.85;;;4.30;99.90;;;;;;5019277;28;20029;-53
2023/01/16 07:34:37;;;;;;;6.70;2.90;;;4.30;99.90;;;;;;5011602;28;20038;-52
2023/01/16 07:37:23;;;;;;;4.95;3.03;;;4.30;99.90;;;;;;5030644;28;20037;-57
2023/01/16 07:40:10;;;;;;;10.18;3.40;;;4.30;99.90;;;;;;4995647;28;20069;-55
2023/01/16 07:42:55;;;;;;;6.43;2.80;;;4.30;99.90;;;;;;5019013;28;20528;-54
2023/01/16 07:45:41;;;;;;;6.57;2.83;;;4.40;99.90;;;;;;5008149;28;20490;-57
2023/01/16 07:48:27;;;;;;;18.92;8.82;;;4.30;99.90;;;;;;5032825;28;20498;-49
2023/01/16 07:51:13;;;;;;;6.18;3.08;;;4.30;99.90;;;;;;5034170;28;20045;-50
2023/01/16 07:53:59;;;;;;;5.75;2.60;;;4.40;99.90;;;;;;5030202;28;20029;-50
2023/01/16 07:56:45;;;;;;;8.82;2.85;;;4.40;99.90;;;;;;5012858;28;20125;-49
2023/01/16 07:59:31;;;;;;;9.20;2.70;;;4.40;99.90;;;;;;5007392;28;20026;-49
2023/01/16 08:02:17;;;;;;;12.95;3.55;;;4.30;99.90;;;;;;5013543;28;20026;-51
2023/01/16 08:05:04;;;;;;;5.95;3.50;;;4.40;99.90;;;;;;5013120;28;20030;-51
2023/01/16 08:07:49;;;;;;;10.68;3.85;;;4.40;99.90;;;;;;5013808;28;20089;-54
2023/01/16 08:10:36;;;;;;;9.10;4.32;;;4.40;99.90;;;;;;5013762;28;20034;-59
2023/01/16 08:13:23;;;;;;;8.45;3.88;;;4.40;99.90;;;;;;5019938;28;20044;-55
2023/01/16 08:16:09;;;;;;;8.25;3.80;;;4.40;99.90;;;;;;5025460;28;20022;-50
2023/01/16 08:18:55;;;;;;;10.02;3.90;;;4.40;99.90;;;;;;5012572;28;20109;-46
2023/01/16 08:21:41;;;;;;;9.38;3.30;;;4.40;99.90;;;;;;5016976;28;20018;-53
2023/01/16 08:24:27;;;;;;;6.97;3.22;;;4.50;99.90;;;;;;5014427;28;20100;-53
2023/01/16 08:27:13;;;;;;;4.63;2.60;;;4.60;99.90;;;;;;5028118;28;20045;-50
2023/01/16 08:29:59;;;;;;;5.78;2.95;;;4.60;99.90;;;;;;5019604;28;20041;-52
2023/01/16 08:32:44;;;;;;;6.65;3.00;;;4.60;99.90;;;;;;5032746;28;20026;-54
2023/01/16 08:35:30;;;;;;;7.45;3.10;;;4.60;99.90;;;;;;5016431;28;20489;-56
2023/01/16 08:38:19;;;;;;;6.75;3.15;;;4.60;99.90;;;;;;4999636;28;20395;-54
2023/01/16 08:51:21;;;;;;;36.88;6.30;;;4.60;99.90;;;;;;5019221;28;20052;-45
2023/01/16 08:53:35;;;;;;;8.80;3.22;;;4.60;99.90;;;;;;5013131;28;20038;-57
2023/01/16 08:56:22;;;;;;;13.85;3.58;;;4.70;99.90;;;;;;5017562;28;20068;-56
2023/01/16 08:59:11;;;;;;;4.65;3.20;;;4.70;99.90;;;;;;5032524;28;20021;-55
2023/01/16 09:01:57;;;;;;;7.93;2.72;;;4.80;99.90;;;;;;5033619;28;20045;-54
2023/01/16 09:04:44;;;;;;;11.52;5.70;;;4.90;99.90;;;;;;5032061;28;20065;-55
2023/01/16 09:07:29;;;;;;;6.63;2.95;;;4.90;99.90;;;;;;5033087;28;20029;-55
2023/01/16 09:10:16;;;;;;;7.55;2.60;;;5.00;99.90;;;;;;5031858;28;20022;-50
2023/01/16 09:16:07;;;;;;;6.32;3.05;;;5.20;99.90;;;;;;5032361;28;20025;-53
2023/01/16 09:18:53;;;;;;;7.65;2.90;;;5.30;99.90;;;;;;5032084;28;20032;-51
2023/01/16 09:21:39;;;;;;;10.30;2.88;;;5.30;99.90;;;;;;5027910;28;20075;-52
2023/01/16 09:24:25;;;;;;;15.18;3.55;;;5.40;99.90;;;;;;5011919;28;20022;-56
2023/01/16 09:27:17;;;;;;;9.27;3.20;;;5.40;99.90;;;;;;5016879;28;20025;-55
2023/01/16 09:30:04;;;;;;;5.78;2.88;;;5.40;99.90;;;;;;5030949;28;20026;-53
2023/01/16 09:32:50;;;;;;;6.45;2.65;;;5.30;99.90;;;;;;5032035;28;20448;-50
2023/01/16 09:35:36;;;;;;;10.82;2.97;;;5.30;99.90;;;;;;5013191;28;20490;-53
2023/01/16 09:38:22;;;;;;;6.45;3.35;;;5.30;99.90;;;;;;5011853;28;20057;-49
2023/01/16 09:43:35;;;;;;;7.55;3.35;;;5.50;99.90;;;;;;4996305;28;20486;-55
2023/01/16 09:44:21;;;;;;;7.28;3.40;;;5.50;99.90;;;;;;5010935;28;20522;-54
2023/01/16 09:47:08;;;;;;;18.35;8.13;;;5.70;99.90;;;;;;5010216;28;20526;-54
2023/01/16 09:50:02;;;;;;;10.52;3.08;;;5.90;99.90;;;;;;4995727;28;20521;-55
2023/01/16 09:59:11;;;;;;;8.52;3.00;;;6.00;99.90;;;;;;5006878;28;20038;-50
2023/01/16 10:02:09;;;;;;;7.97;2.95;;;6.00;99.90;;;;;;5008157;28;20030;-47
2023/01/16 10:04:56;;;;;;;7.90;3.10;;;6.20;99.90;;;;;;5010079;28;20022;-54
2023/01/16 10:07:47;;;;;;;10.43;3.20;;;6.30;99.90;;;;;;5014844;28;20018;-51
2023/01/16 10:11:13;;;;;;;9.23;3.20;;;6.40;99.90;;;;;;5006214;28;20500;-55
2023/01/16 10:14:32;;;;;;;7.57;3.03;;;6.50;99.90;;;;;;4993250;28;20040;-49
2023/01/16 10:17:30;;;;;;;10.65;3.55;;;6.60;99.90;;;;;;5009439;28;20026;-51
2023/01/16 10:20:44;;;;;;;10.48;4.88;;;6.70;99.90;;;;;;4991946;28;20026;-55
2023/01/16 10:23:35;;;;;;;8.45;4.22;;;6.80;99.90;;;;;;5013301;28;20014;-50
2023/01/16 10:26:57;;;;;;;5.93;2.70;;;6.90;99.90;;;;;;5005954;28;20033;-55
2023/01/16 10:29:55;;;;;;;36.75;6.55;;;6.90;99.90;;;;;;4991864;28;20036;-56
2023/01/16 10:32:51;;;;;;;31.70;7.22;;;6.90;99.90;;;;;;5007028;28;20025;-50
2023/01/16 10:35:43;;;;;;;19.83;3.97;;;7.00;99.90;;;;;;5006937;28;20122;-53
2023/01/16 10:38:43;;;;;;;9.50;2.70;;;6.90;99.60;;;;;;5030016;28;20024;-49
2023/01/16 10:51:03;;;;;;;5.60;2.63;;;6.80;99.90;;;;;;5012558;28;20057;-55
2023/01/16 10:53:49;;;;;;;7.57;3.35;;;6.80;99.90;;;;;;5011918;28;20030;-53
2023/01/16 10:56:42;;;;;;;7.65;2.80;;;6.70;99.90;;;;;;5011139;28;20498;-56
2023/01/16 10:59:30;;;;;;;24.88;4.63;;;6.80;99.90;;;;;;4998515;28;20504;-57
2023/01/16 11:02:33;;;;;;;9.18;3.95;;;6.80;99.90;;;;;;5011175;28;20029;-57
2023/01/16 11:05:27;;;;;;;18.25;3.92;;;6.80;99.90;;;;;;5011894;28;20053;-54
2023/01/16 11:08:15;;;;;;;10.45;3.13;;;7.10;99.90;;;;;;5011761;28;20081;-56
2023/01/16 11:11:02;;;;;;;10.65;3.45;;;7.40;99.90;;;;;;5011322;28;20030;-54
2023/01/16 11:19:57;;;;;;;8.77;3.33;;;7.20;99.50;;;;;;5015972;28;20033;-56
2023/01/16 11:22:48;;;;;;;5.75;3.60;;;7.40;99.10;;;;;;5014842;28;20022;-50
2023/01/16 11:25:35;;;;;;;8.13;2.70;;;7.40;99.00;;;;;;5001288;28;20029;-49
2023/01/16 11:28:24;;;;;;;79.78;14.55;;;7.30;98.80;;;;;;5014995;28;20026;-54
2023/01/16 11:31:31;;;;;;;17.55;4.82;;;7.30;98.90;;;;;;5014420;28;20081;-53
2023/01/16 11:34:17;;;;;;;10.52;3.35;;;7.20;98.90;;;;;;5014894;28;20029;-55
2023/01/16 11:37:07;;;;;;;9.43;2.80;;;7.10;99.10;;;;;;5013521;28;20092;-47
2023/01/16 11:39:54;;;;;;;16.13;8.30;;;7.30;99.00;;;;;;5014795;28;20517;-55
2023/01/16 11:46:02;;;;;;;;;;;7.20;98.80;;;;;;5014728;28;20022;-54
2023/01/16 11:48:53;;;;;;;14.02;3.50;;;7.20;98.80;;;;;;5014741;28;19917;-50
2023/01/16 11:51:39;;;;;;;11.13;2.80;;;7.10;98.70;;;;;;5015599;28;20041;-52
2023/01/16 11:54:28;;;;;;;5.88;3.35;;;7.20;98.70;;;;;;5015770;28;20051;-51
2023/01/16 11:57:43;;;;;;;5.30;2.50;;;7.30;98.40;;;;;;5015208;28;20510;-52
2023/01/16 12:00:45;;;;;;;10.02;3.08;;;7.40;98.20;;;;;;5014569;28;20572;-55
2023/01/16 12:04:04;;;;;;;7.15;2.83;;;7.30;98.20;;;;;;5015891;28;20077;-51
2023/01/16 12:07:00;;;;;;;4.75;2.38;;;7.20;98.30;;;;;;5014067;28;20470;-49
2023/01/16 12:09:59;;;;;;;5.13;2.45;;;7.20;97.90;;;;;;5014890;28;20466;-52
2023/01/16 12:16:30;;;;;;;4.32;2.80;;;7.20;97.90;;;;;;5013145;28;20514;-50
2023/01/16 12:19:31;;;;;;;5.47;3.05;;;7.10;97.80;;;;;;5014331;28;20026;-52
2023/01/16 12:22:49;;;;;;;7.30;3.63;;;7.20;97.90;;;;;;5013521;28;20026;-56
2023/01/16 12:26:03;;;;;;;3.20;2.70;;;7.30;97.90;;;;;;5013992;28;20093;-50
2023/01/16 12:29:13;;;;;;;5.35;2.50;;;7.30;97.60;;;;;;5013863;28;20026;-54
2023/01/16 12:32:14;;;;;;;6.00;2.60;;;7.10;98.00;;;;;;5014569;28;20024;-54
2023/01/16 12:35:29;;;;;;;6.43;2.80;;;7.20;98.00;;;;;;5013408;28;20569;-51
2023/01/16 12:38:29;;;;;;;6.57;2.67;;;7.20;97.90;;;;;;5000991;28;20524;-56
2023/01/16 12:44:43;;;;;;;9.13;2.70;;;7.20;97.90;;;;;;5013478;28;20050;-52
2023/01/16 12:47:46;;;;;;;7.40;2.38;;;7.30;97.90;;;;;;5013433;28;20029;-50
2023/01/16 12:51:00;;;;;;;6.13;2.65;;;7.10;98.20;;;;;;5013580;28;20669;-52
2023/01/16 12:54:09;;;;;;;9.52;3.47;;;7.10;98.50;;;;;;5014139;28;20030;-51
2023/01/16 12:57:06;;;;;;;4.75;2.67;;;7.10;98.30;;;;;;4990725;28;20044;-49
2023/01/16 13:00:09;;;;;;;4.05;2.20;;;7.10;98.30;;;;;;5014516;28;20398;-55
2023/01/16 13:03:00;;;;;;;6.72;2.40;;;7.10;98.60;;;;;;5014041;28;20081;-53
2023/01/16 13:05:48;;;;;;;4.68;2.42;;;7.00;98.40;;;;;;5012577;28;20018;-52
2023/01/16 13:08:46;;;;;;;6.15;3.00;;;7.00;98.40;;;;;;5013022;28;20030;-54
2023/01/16 13:14:47;;;;;;;5.78;2.53;;;7.00;98.50;;;;;;5012670;28;20025;-54
2023/01/16 13:17:45;;;;;;;4.93;2.53;;;7.10;98.20;;;;;;5012439;28;20038;-57
2023/01/16 13:20:32;;;;;;;5.13;2.78;;;7.20;98.00;;;;;;5013192;28;20073;-53
2023/01/16 13:23:21;;;;;;;17.98;5.25;;;7.10;97.90;;;;;;4998380;28;20521;-53
2023/01/16 13:26:14;;;;;;;21.17;5.18;;;7.10;97.90;;;;;;5012396;28;20026;-58
2023/01/16 13:29:16;;;;;;;4.95;2.90;;;7.10;97.90;;;;;;5012954;28;20131;-51
2023/01/16 13:32:17;;;;;;;7.68;4.30;;;7.10;97.90;;;;;;5013184;28;20513;-49
2023/01/16 13:35:25;;;;;;;4.45;2.80;;;7.00;98.20;;;;;;5012570;28;20080;-49
2023/01/16 13:38:23;;;;;;;7.60;3.10;;;7.10;98.20;;;;;;5011278;28;20036;-46
2023/01/16 13:41:21;;;;;;;3.72;2.40;;;7.10;98.10;;;;;;5012234;28;20161;-52
2023/01/16 13:47:28;;;;;;;;;;;7.10;98.20;;;;;;5012807;28;20037;-48
2023/01/16 13:50:30;;;;;;;11.75;5.95;;;7.10;97.90;;;;;;5025548;28;19910;-53
2023/01/16 13:53:17;;;;;;;4.28;2.72;;;7.10;97.90;;;;;;4996875;28;20109;-51
2023/01/16 13:56:10;;;;;;;5.57;2.60;;;7.00;98.10;;;;;;5012023;28;20050;-54
2023/01/16 13:59:25;;;;;;;7.30;2.63;;;7.00;98.10;;;;;;5011928;28;20494;-54
2023/01/16 14:02:39;;;;;;;3.95;2.47;;;7.00;98.20;;;;;;5012822;28;20025;-54
2023/01/16 14:05:36;;;;;;;5.20;2.55;;;7.00;98.10;;;;;;5011566;28;20022;-53
2023/01/16 14:09:10;;;;;;;4.53;2.50;;;7.00;98.20;;;;;;5012084;28;20022;-53
2023/01/16 14:12:23;;;;;;;5.35;2.60;;;7.00;98.20;;;;;;5011907;28;20022;-51
2023/01/16 14:18:36;;;;;;;6.15;2.60;;;6.90;98.30;;;;;;5013046;28;20030;-52
2023/01/16 14:21:25;;;;;;;9.38;2.88;;;6.90;98.30;;;;;;5011537;28;20022;-49
2023/01/16 14:24:19;;;;;;;49.28;9.95;;;7.00;98.20;;;;;;5012814;28;20406;-53
2023/01/16 14:27:11;;;;;;;12.40;6.40;;;7.00;98.40;;;;;;5010616;28;20089;-55
2023/01/16 14:30:02;;;;;;;5.63;2.72;;;7.00;98.50;;;;;;5013205;28;20026;-49
2023/01/16 14:32:56;;;;;;;7.15;2.65;;;7.00;98.40;;;;;;5011190;28;20406;-51
2023/01/16 14:35:51;;;;;;;6.68;2.72;;;6.90;98.50;;;;;;5011017;28;20033;-53
2023/01/16 14:38:37;;;;;;;31.95;8.50;;;7.00;98.50;;;;;;5012244;28;20097;-52
2023/01/16 14:57:43;;;;;;;9.48;5.10;;;7.00;98.40;;;;;;5010498;28;20084;-52
2023/01/16 15:00:30;;;;;;;7.50;3.17;;;7.00;98.20;;;;;;5011291;28;20445;-57
2023/01/16 15:03:23;;;;;;;5.70;2.70;;;7.00;98.30;;;;;;5012093;28;20124;-60
2023/01/16 15:06:09;;;;;;;4.78;2.55;;;7.00;98.30;;;;;;5011201;28;20029;-57
2023/01/16 15:08:56;;;;;;;9.82;2.97;;;7.00;98.20;;;;;;5010105;28;20417;-51
2023/01/16 15:11:51;;;;;;;8.02;2.90;;;7.00;98.10;;;;;;5011965;28;20065;-49
2023/01/16 15:14:37;;;;;;;6.93;4.45;;;7.10;98.00;;;;;;5011077;28;20116;-53
2023/01/16 15:23:36;;;;;;;7.32;3.72;;;7.00;99.90;;;;;;5012044;28;20026;-54
2023/01/16 15:26:29;;;;;;;7.55;3.85;;;7.30;99.90;;;;;;5010237;28;20030;-49
2023/01/16 15:29:27;;;;;;;9.50;5.32;;;7.70;99.90;;;;;;5011010;28;20029;-51
2023/01/16 15:32:20;;;;;;;7.60;3.40;;;8.10;99.90;;;;;;5010376;28;20030;-50
2023/01/16 15:35:15;;;;;;;4.72;2.60;;;8.10;98.30;;;;;;5010233;28;20387;-52
2023/01/16 15:38:08;;;;;;;6.35;3.05;;;7.80;97.60;;;;;;5009891;28;20014;-54
2023/01/16 15:40:57;;;;;;;4.50;2.60;;;7.60;97.40;;;;;;5010803;28;20057;-56
2023/01/16 15:47:15;;;;;;;9.55;3.47;;;7.20;97.40;;;;;;5010389;28;20056;-55
2023/01/16 15:50:13;;;;;;;4.47;2.70;;;7.10;97.50;;;;;;5009295;28;20033;-54
2023/01/16 15:53:00;;;;;;;4.65;2.30;;;7.10;97.50;;;;;;5010690;28;20033;-53
2023/01/16 15:55:52;;;;;;;4.85;3.00;;;7.00;97.60;;;;;;5009775;28;20093;-50
2023/01/16 15:58:41;;;;;;;4.28;2.40;;;7.00;97.70;;;;;;5010697;28;20442;-56
2023/01/16 16:01:32;;;;;;;6.38;2.70;;;7.00;97.70;;;;;;5010448;28;20029;-50
2023/01/16 16:04:21;;;;;;;4.68;2.75;;;7.00;97.60;;;;;;5015898;28;20037;-52
2023/01/16 16:07:07;;;;;;;4.00;2.80;;;7.00;97.60;;;;;;5007428;28;20038;-55
2023/01/16 16:10:00;;;;;;;4.15;2.00;;;6.90;97.60;;;;;;4998848;28;20030;-54
2023/01/16 16:12:46;;;;;;;5.70;3.00;;;6.90;97.60;;;;;;5014790;28;20026;-54
2023/01/16 16:18:36;;;;;;;9.05;3.78;;;6.90;97.90;;;;;;5015242;28;20034;-54
2023/01/16 16:21:25;;;;;;;4.93;3.22;;;6.80;97.80;;;;;;5029247;28;20060;-51
2023/01/16 16:24:12;;;;;;;4.80;2.85;;;6.80;97.90;;;;;;4998012;28;20042;-50
2023/01/16 16:27:03;;;;;;;3.63;2.58;;;6.80;97.90;;;;;;5001711;28;20121;-55
2023/01/16 16:29:51;;;;;;;7.05;3.20;;;6.80;97.90;;;;;;5014781;28;20622;-53
2023/01/16 16:32:37;;;;;;;4.88;3.13;;;6.80;97.70;;;;;;4999348;28;20036;-52
2023/01/16 16:35:34;;;;;;;4.90;3.40;;;6.70;97.60;;;;;;5016653;28;20045;-53
2023/01/16 16:38:45;;;;;;;6.63;3.10;;;6.80;97.50;;;;;;5026594;28;20026;-54